Time;durP1;ratioP1;P1;durP2;ratioP2;P2;SDS_P1;SDS_P2;PMS_P1;PMS_P2;Temp;Humidity;BMP_temperature;BMP_pressure;BME280_temperature;BME280_humidity;BME280_pressure;Samples;Min_cycle;Max_cycle;Signal;HPM_P1;HPM_P2
2022/10/19 00:01:22;;;;;;;12.65;6.47;;;;;;;7.82;100.00;102711.72;5262852;28;20060;-68
2022/10/19 00:03:54;;;;;;;13.48;6.88;;;;;;;7.92;100.00;102712.28;5267165;28;20463;-68
2022/10/19 00:06:29;;;;;;;14.85;6.82;;;;;;;7.84;100.00;102704.56;5264711;28;20128;-68
2022/10/19 00:09:03;;;;;;;;;;;;;;;7.91;100.00;102701.69;5269065;28;20031;-68
2022/10/19 00:11:37;;;;;;;14.87;7.40;;;;;;;7.76;100.00;102701.28;5268745;28;21322;-68
2022/10/19 00:14:13;;;;;;;14.75;6.60;;;;;;;7.82;100.00;102698.44;5263905;28;20024;-68
2022/10/19 00:16:46;;;;;;;16.80;6.70;;;;;;;7.75;100.00;102691.59;5263889;28;20047;-68
2022/10/19 00:19:21;;;;;;;12.15;6.07;;;;;;;7.73;100.00;102703.19;5263424;28;20519;-68
2022/10/19 00:21:53;;;;;;;13.50;6.70;;;;;;;7.72;100.00;102699.66;5262185;28;20069;-68
2022/10/19 00:24:24;;;;;;;15.30;7.00;;;;;;;7.66;100.00;102692.78;5260042;28;20112;-68
2022/10/19 00:26:56;;;;;;;15.52;7.13;;;;;;;7.62;100.00;102690.28;5262559;28;21812;-68
2022/10/19 00:29:27;;;;;;;14.32;6.88;;;;;;;7.68;100.00;102684.75;5260748;28;20071;-68
2022/10/19 00:31:58;;;;;;;16.60;6.38;;;;;;;7.59;100.00;102690.38;5262503;28;20452;-69
2022/10/19 00:34:29;;;;;;;15.38;6.93;;;;;;;7.65;100.00;102687.50;5269342;28;20021;-68
2022/10/19 00:37:01;;;;;;;16.05;7.40;;;;;;;7.58;100.00;102686.00;5261705;28;20044;-68
2022/10/19 00:39:32;;;;;;;14.35;7.05;;;;;;;7.59;100.00;102677.09;5247976;28;20663;-68
2022/10/19 00:42:04;;;;;;;19.25;8.18;;;;;;;7.63;100.00;102684.94;5280723;28;20037;-68
2022/10/19 00:44:35;;;;;;;13.50;6.90;;;;;;;7.58;100.00;102684.22;5267166;28;20537;-68
2022/10/19 00:47:07;;;;;;;15.30;7.28;;;;;;;7.54;100.00;102687.91;5246780;28;20123;-68
2022/10/19 00:49:42;;;;;;;14.68;7.63;;;;;;;7.52;100.00;102680.91;5277350;28;20105;-68
2022/10/19 00:52:18;;;;;;;14.90;6.95;;;;;;;7.62;100.00;102692.94;5261599;28;20032;-68
2022/10/19 00:54:51;;;;;;;12.57;6.57;;;;;;;7.51;100.00;102695.97;5259582;28;20453;-68
2022/10/19 00:57:27;;;;;;;17.90;7.03;;;;;;;7.47;100.00;102692.53;5256206;28;20033;-68
2022/10/19 01:00:01;;;;;;;11.38;6.63;;;;;;;7.44;100.00;102694.41;5264753;28;20167;-68
2022/10/19 01:02:33;;;;;;;15.18;7.10;;;;;;;7.50;100.00;102702.22;5267544;28;20483;-68
2022/10/19 01:05:05;;;;;;;12.82;6.88;;;;;;;7.47;100.00;102696.97;5268244;28;20040;-67
2022/10/19 01:07:36;;;;;;;13.18;7.70;;;;;;;7.49;100.00;102689.84;5266102;28;20032;-68
2022/10/19 01:10:08;;;;;;;13.57;6.85;;;;;;;7.46;100.00;102695.25;5266083;28;20039;-68
2022/10/19 01:12:59;;;;;;;17.40;8.38;;;;;;;7.59;100.00;102691.28;5262619;28;20029;-67
2022/10/19 01:15:49;;;;;;;13.65;7.25;;;;;;;7.50;100.00;102699.56;5265451;28;20420;-68
2022/10/19 01:18:31;;;;;;;13.05;6.38;;;;;;;7.45;100.00;102688.19;5261663;28;20040;-68
2022/10/19 01:21:20;;;;;;;14.15;7.13;;;;;;;7.41;100.00;102691.88;5262170;28;20151;-68
2022/10/19 01:24:18;;;;;;;11.68;6.82;;;;;;;7.38;100.00;102690.22;5282444;28;20020;-68
2022/10/19 01:27:30;;;;;;;14.98;6.90;;;;;;;7.42;100.00;102697.16;5261252;28;20025;-68
2022/10/19 01:30:05;;;;;;;14.30;7.45;;;;;;;7.36;100.00;102686.72;5261501;28;21148;-68
2022/10/19 01:32:56;;;;;;;15.23;7.20;;;;;;;7.42;100.00;102688.28;5264959;28;20032;-68
2022/10/19 01:35:53;;;;;;;13.73;8.32;;;;;;;7.36;100.00;102683.19;5287031;28;20024;-68
2022/10/19 01:38:43;;;;;;;15.55;7.32;;;;;;;7.31;100.00;102677.19;5273883;28;20472;-68
2022/10/19 01:41:35;;;;;;;13.23;7.68;;;;;;;7.30;100.00;102678.09;5278963;28;20431;-67
2022/10/19 01:44:22;;;;;;;15.55;7.43;;;;;;;7.26;100.00;102679.97;5277752;28;20028;-67
2022/10/19 01:46:57;;;;;;;19.83;7.70;;;;;;;7.31;100.00;102682.50;5262801;28;20547;-68
2022/10/19 01:49:40;;;;;;;14.45;7.57;;;;;;;7.23;100.00;102683.63;5267545;28;20032;-67
2022/10/19 01:52:16;;;;;;;12.68;7.38;;;;;;;7.17;100.00;102682.94;5283467;28;20465;-67
2022/10/19 01:54:53;;;;;;;13.70;6.95;;;;;;;7.17;100.00;102691.78;5258049;28;20043;-67
2022/10/19 01:57:33;;;;;;;15.20;7.25;;;;;;;7.13;100.00;102679.50;5259396;28;20594;-68
2022/10/19 02:00:06;;;;;;;13.13;7.28;;;;;;;7.12;100.00;102676.94;5257505;28;20028;-68
2022/10/19 02:02:42;;;;;;;18.30;7.35;;;;;;;7.13;100.00;102674.19;5262003;28;20040;-68
2022/10/19 02:05:15;;;;;;;13.93;7.07;;;;;;;7.13;100.00;102663.56;5258943;28;20024;-68
2022/10/19 02:07:54;;;;;;;13.90;8.25;;;;;;;7.14;100.00;102667.13;5269787;28;20031;-68
2022/10/19 02:10:28;;;;;;;12.98;7.65;;;;;;;7.07;100.00;102661.13;5264004;28;20024;-67
2022/10/19 02:13:01;;;;;;;12.90;7.25;;;;;;;7.06;100.00;102654.97;5259837;28;20486;-68
2022/10/19 02:15:37;;;;;;;15.25;7.38;;;;;;;7.03;100.00;102651.53;5255562;28;20032;-67
2022/10/19 02:18:11;;;;;;;17.20;7.80;;;;;;;7.00;100.00;102647.22;5263851;28;20039;-67
2022/10/19 02:20:42;;;;;;;;;;;;;;;7.07;100.00;102638.09;5264141;28;20119;-68
2022/10/19 02:23:19;;;;;;;15.93;6.85;;;;;;;7.06;100.00;102632.88;5263447;28;19974;-67
2022/10/19 02:25:50;;;;;;;14.55;7.45;;;;;;;7.04;100.00;102638.22;5265324;28;20035;-67
2022/10/19 02:28:23;;;;;;;13.18;7.90;;;;;;;6.99;100.00;102634.84;5276823;28;20739;-67
2022/10/19 02:30:55;;;;;;;13.93;7.30;;;;;;;7.02;100.00;102629.44;5259670;28;20592;-67
2022/10/19 02:33:28;;;;;;;14.93;7.55;;;;;;;7.00;100.00;102633.03;5258188;28;20040;-67
2022/10/19 02:35:59;;;;;;;11.80;8.18;;;;;;;6.99;100.00;102626.03;5286495;28;20040;-69
2022/10/19 02:38:31;;;;;;;16.38;7.72;;;;;;;6.95;100.00;102622.59;5282084;28;20032;-67
2022/10/19 02:41:10;;;;;;;13.48;7.53;;;;;;;6.93;100.00;102616.47;5274915;28;20036;-67
2022/10/19 02:43:45;;;;;;;15.63;8.05;;;;;;;6.79;100.00;102616.94;5264724;28;20145;-67
2022/10/19 02:46:37;;;;;;;15.30;7.93;;;;;;;6.85;100.00;102626.47;5271752;28;20465;-68
2022/10/19 02:49:10;;;;;;;14.30;7.95;;;;;;;6.89;100.00;102612.19;5277159;28;20521;-67
2022/10/19 02:52:14;;;;;;;14.32;6.97;;;;;;;6.80;100.00;102616.00;5276098;28;20487;-67
2022/10/19 02:54:45;;;;;;;18.63;8.10;;;;;;;6.87;100.00;102628.16;5221442;28;20554;-67
2022/10/19 02:57:22;;;;;;;12.23;7.13;;;;;;;6.84;100.00;102620.28;5261804;28;20038;-67
2022/10/19 02:59:54;;;;;;;15.32;7.80;;;;;;;6.81;100.00;102619.53;5270769;28;20446;-67
2022/10/19 03:02:25;;;;;;;17.13;7.25;;;;;;;6.70;100.00;102614.56;5272625;28;20156;-67
2022/10/19 03:04:57;;;;;;;16.27;7.25;;;;;;;6.83;100.00;102615.91;5291643;28;20020;-67
2022/10/19 03:07:28;;;;;;;10.70;6.63;;;;;;;6.73;100.00;102619.78;5281077;28;20057;-67
2022/10/19 03:09:59;;;;;;;14.90;8.38;;;;;;;6.68;100.00;102608.44;5279546;28;20406;-67
2022/10/19 03:12:31;;;;;;;13.75;7.82;;;;;;;6.68;100.00;102619.03;5285605;28;20083;-67
2022/10/19 03:15:03;;;;;;;11.95;8.15;;;;;;;6.64;100.00;102620.94;5274759;28;20040;-67
2022/10/19 03:17:34;;;;;;;14.45;8.00;;;;;;;6.57;100.00;102623.81;5283160;28;20038;-67
2022/10/19 03:20:06;;;;;;;13.43;7.65;;;;;;;6.54;100.00;102624.78;5277509;28;20039;-67
2022/10/19 03:22:37;;;;;;;16.75;8.60;;;;;;;6.57;100.00;102629.97;5273236;28;20385;-67
2022/10/19 03:25:09;;;;;;;11.07;7.22;;;;;;;6.61;100.00;102625.44;5268069;28;20093;-67
2022/10/19 03:27:40;;;;;;;14.00;7.78;;;;;;;6.62;100.00;102619.25;5268067;28;20040;-67
2022/10/19 03:30:11;;;;;;;12.52;7.32;;;;;;;6.53;100.00;102620.38;5262230;28;20162;-69
2022/10/19 03:32:43;;;;;;;13.38;7.25;;;;;;;6.56;100.00;102616.75;5268453;28;20047;-67
2022/10/19 03:35:14;;;;;;;10.68;6.68;;;;;;;6.59;100.00;102614.88;5268932;28;20040;-67
2022/10/19 03:37:45;;;;;;;12.02;7.10;;;;;;;6.51;100.00;102619.56;5268683;28;20606;-67
2022/10/19 03:40:17;;;;;;;14.85;7.50;;;;;;;6.59;100.00;102614.03;5269587;28;20032;-68
2022/10/19 03:42:48;;;;;;;11.45;7.63;;;;;;;6.52;100.00;102610.72;5261888;28;20668;-68
2022/10/19 03:45:19;;;;;;;13.88;6.93;;;;;;;6.50;100.00;102620.50;5271884;28;20071;-67
2022/10/19 03:47:51;;;;;;;12.90;6.70;;;;;;;6.55;100.00;102612.38;5268385;28;20115;-67
2022/10/19 03:50:22;;;;;;;14.20;7.53;;;;;;;6.45;100.00;102615.31;5268087;28;20036;-67
2022/10/19 03:52:54;;;;;;;12.45;7.35;;;;;;;6.37;100.00;102612.03;5256657;28;20029;-67
2022/10/19 03:55:25;;;;;;;10.40;7.00;;;;;;;6.39;100.00;102614.66;5283918;28;20538;-67
2022/10/19 03:57:56;;;;;;;12.00;7.10;;;;;;;6.36;100.00;102618.25;5273838;28;20382;-68
2022/10/19 04:00:28;;;;;;;14.25;7.30;;;;;;;6.30;100.00;102625.53;5273668;28;20423;-68
2022/10/19 04:02:59;;;;;;;9.98;6.40;;;;;;;6.31;100.00;102620.19;5286149;28;20478;-67
2022/10/19 04:05:30;;;;;;;17.30;7.85;;;;;;;6.32;100.00;102623.69;5275317;28;20032;-68
2022/10/19 04:08:01;;;;;;;13.82;7.22;;;;;;;6.19;100.00;102624.03;5277554;28;20068;-67
2022/10/19 04:10:33;;;;;;;14.48;6.82;;;;;;;6.15;100.00;102637.44;5276263;28;20032;-67
2022/10/19 04:13:04;;;;;;;14.02;7.10;;;;;;;6.17;100.00;102625.88;5268517;28;20029;-68
2022/10/19 04:15:35;;;;;;;14.38;7.80;;;;;;;6.19;100.00;102624.03;5276106;28;20034;-67
2022/10/19 04:18:07;;;;;;;15.32;7.40;;;;;;;6.10;100.00;102611.09;5278021;28;20120;-67
2022/10/19 04:20:41;;;;;;;10.98;6.60;;;;;;;6.11;100.00;102609.31;5275683;28;20041;-67
2022/10/19 04:23:12;;;;;;;11.90;7.05;;;;;;;6.13;100.00;102610.13;5282431;28;20042;-69
2022/10/19 04:25:44;;;;;;;16.60;7.40;;;;;;;6.08;100.00;102612.91;5277175;28;20025;-69
2022/10/19 04:28:15;;;;;;;15.90;7.72;;;;;;;6.05;100.00;102620.94;5266062;28;20035;-68
2022/10/19 04:30:46;;;;;;;12.85;7.40;;;;;;;6.06;100.00;102615.59;5279453;28;20482;-69
2022/10/19 04:33:17;;;;;;;15.38;7.20;;;;;;;6.11;100.00;102611.94;5278767;28;20037;-69
2022/10/19 04:35:49;;;;;;;13.07;7.35;;;;;;;6.08;100.00;102600.53;5262628;28;20060;-69
2022/10/19 04:38:20;;;;;;;12.32;7.45;;;;;;;6.14;100.00;102603.94;5273670;28;20027;-68
2022/10/19 04:40:51;;;;;;;12.63;7.45;;;;;;;6.11;100.00;102599.56;5275082;28;20043;-69
2022/10/19 04:43:23;;;;;;;12.50;7.22;;;;;;;6.04;100.00;102606.84;5255468;28;20029;-69
2022/10/19 04:45:54;;;;;;;12.65;7.07;;;;;;;6.13;100.00;102607.47;5268990;28;20029;-69
2022/10/19 04:48:25;;;;;;;16.75;8.25;;;;;;;6.14;100.00;102604.78;5280096;28;20071;-68
2022/10/19 04:50:57;;;;;;;12.05;7.65;;;;;;;6.05;100.00;102599.75;5259568;28;20106;-68
2022/10/19 04:53:28;;;;;;;14.02;7.25;;;;;;;6.04;100.00;102605.94;5263226;28;20781;-68
2022/10/19 04:56:04;;;;;;;14.07;7.22;;;;;;;6.07;100.00;102605.88;5260151;28;20162;-69
2022/10/19 04:58:35;;;;;;;16.52;8.55;;;;;;;6.08;100.00;102618.22;5279933;28;20070;-69
2022/10/19 05:01:15;;;;;;;15.52;7.40;;;;;;;6.03;100.00;102614.81;5275169;28;20028;-68
2022/10/19 05:03:46;;;;;;;11.88;7.03;;;;;;;5.99;100.00;102608.75;5278445;28;20042;-68
2022/10/19 05:06:18;;;;;;;11.57;7.13;;;;;;;6.01;100.00;102609.56;5269817;28;20029;-69
2022/10/19 05:08:49;;;;;;;11.80;6.97;;;;;;;6.04;100.00;102611.25;5265016;28;20040;-69
2022/10/19 05:11:21;;;;;;;14.25;7.40;;;;;;;5.98;100.00;102609.63;5268524;28;20032;-70
2022/10/19 05:13:52;;;;;;;16.27;7.80;;;;;;;5.94;100.00;102605.31;5283894;28;20048;-69
2022/10/19 05:16:24;;;;;;;15.05;7.30;;;;;;;5.93;100.00;102603.59;5266283;28;20037;-68
2022/10/19 05:18:57;;;;;;;13.23;8.25;;;;;;;6.04;100.00;102611.25;5272901;28;20077;-68
2022/10/19 05:21:28;;;;;;;12.35;7.93;;;;;;;5.87;100.00;102609.06;5282968;28;20028;-67
2022/10/19 05:24:00;;;;;;;16.63;8.02;;;;;;;5.88;100.00;102605.50;5292134;28;20039;-69
2022/10/19 05:26:31;;;;;;;16.30;7.72;;;;;;;5.90;100.00;102601.88;5264914;28;20563;-69
2022/10/19 05:29:03;;;;;;;14.60;8.60;;;;;;;5.92;100.00;102595.69;5273039;28;20028;-68
2022/10/19 05:31:34;;;;;;;14.75;8.48;;;;;;;5.86;100.00;102587.00;5279988;28;20032;-69
2022/10/19 05:34:05;;;;;;;17.95;8.35;;;;;;;5.95;100.00;102588.56;5272979;28;20036;-69
2022/10/19 05:36:38;;;;;;;16.95;8.35;;;;;;;5.86;100.00;102584.34;5272850;28;21305;-69
2022/10/19 05:39:15;;;;;;;13.50;8.50;;;;;;;5.96;100.00;102586.75;5253041;28;20056;-69
2022/10/19 05:41:47;;;;;;;14.75;8.63;;;;;;;6.02;100.00;102579.53;5265042;28;20472;-69
2022/10/19 05:44:20;;;;;;;13.75;8.45;;;;;;;5.89;100.00;102583.41;5264121;28;20107;-69
2022/10/19 05:46:52;;;;;;;14.30;8.45;;;;;;;5.91;100.00;102584.22;5245513;28;20044;-69
2022/10/19 05:49:23;;;;;;;16.58;7.78;;;;;;;5.86;100.00;102580.84;5265523;28;20020;-69
2022/10/19 05:51:55;;;;;;;17.23;8.48;;;;;;;5.95;100.00;102579.72;5259934;28;20111;-69
2022/10/19 05:54:26;;;;;;;12.88;8.25;;;;;;;5.91;100.00;102584.22;5267128;28;20048;-69
2022/10/19 05:56:57;;;;;;;13.90;8.68;;;;;;;5.87;100.00;102579.94;5260514;28;20036;-69
2022/10/19 05:59:29;;;;;;;20.92;9.25;;;;;;;5.87;100.00;102579.94;5266657;28;20551;-69
2022/10/19 06:02:00;;;;;;;19.55;8.63;;;;;;;5.81;100.00;102578.31;5270551;28;20043;-69
2022/10/19 06:04:32;;;;;;;17.73;9.48;;;;;;;5.82;100.00;102576.53;5256447;28;20029;-70
2022/10/19 06:07:04;;;;;;;20.80;9.82;;;;;;;5.85;100.00;102573.81;5256252;28;20047;-69
2022/10/19 06:09:35;;;;;;;13.35;9.02;;;;;;;5.86;100.00;102571.09;5268794;28;20036;-69
2022/10/19 06:12:07;;;;;;;18.63;9.90;;;;;;;5.89;100.00;102567.50;5261972;28;20025;-69
2022/10/19 06:14:38;;;;;;;19.88;10.30;;;;;;;5.85;100.00;102568.50;5267119;28;20446;-69
2022/10/19 06:17:09;;;;;;;18.02;10.10;;;;;;;5.89;100.00;102563.06;5268521;28;20028;-69
2022/10/19 06:19:41;;;;;;;18.33;10.95;;;;;;;5.85;100.00;102566.72;5257130;28;20036;-69
2022/10/19 06:22:12;;;;;;;17.65;10.20;;;;;;;5.83;100.00;102565.00;5272083;28;20041;-69
2022/10/19 06:24:43;;;;;;;19.55;10.73;;;;;;;5.89;100.00;102567.50;5258202;28;20017;-68
2022/10/19 06:27:14;;;;;;;21.13;11.02;;;;;;;5.90;100.00;102563.94;5256269;28;20083;-69
2022/10/19 06:29:46;;;;;;;20.55;10.95;;;;;;;5.82;100.00;102565.94;5256616;28;20059;-69
2022/10/19 06:32:17;;;;;;;16.73;11.80;;;;;;;5.87;100.00;102570.19;5271812;28;20033;-69
2022/10/19 06:34:48;;;;;;;16.27;10.73;;;;;;;5.87;100.00;102572.84;5260600;28;20060;-69
2022/10/19 06:37:19;;;;;;;23.88;10.95;;;;;;;5.90;100.00;102572.75;5260885;28;20032;-69
2022/10/19 06:39:51;;;;;;;22.58;11.27;;;;;;;5.84;100.00;102569.41;5256251;28;20029;-69
2022/10/19 06:42:22;;;;;;;19.58;11.13;;;;;;;5.90;100.00;102571.88;5258430;28;20039;-69
2022/10/19 06:44:53;;;;;;;19.85;11.20;;;;;;;5.94;100.00;102578.81;5255106;28;20127;-69
2022/10/19 06:47:30;;;;;;;19.10;11.38;;;;;;;5.91;100.00;102576.28;5262787;28;20048;-67
2022/10/19 06:50:03;;;;;;;16.42;11.07;;;;;;;5.98;100.00;102575.19;5272381;28;20032;-69
2022/10/19 06:52:34;;;;;;;23.10;12.07;;;;;;;5.95;100.00;102577.06;5260836;28;20054;-69
2022/10/19 06:55:06;;;;;;;17.58;11.32;;;;;;;5.96;100.00;102566.44;5257678;28;20037;-69
2022/10/19 06:57:37;;;;;;;19.67;11.95;;;;;;;5.93;100.00;102574.44;5262185;28;20036;-68
2022/10/19 07:00:10;;;;;;;18.38;11.40;;;;;;;6.04;100.00;102575.03;5257167;28;20033;-68
2022/10/19 07:02:41;;;;;;;22.33;12.40;;;;;;;5.96;100.00;102579.69;5259913;28;20037;-68
2022/10/19 07:05:13;;;;;;;18.75;11.68;;;;;;;5.96;100.00;102577.03;5267859;28;20043;-68
2022/10/19 07:07:44;;;;;;;18.38;12.02;;;;;;;6.07;100.00;102574.06;5258336;28;20526;-69
2022/10/19 07:10:15;;;;;;;23.13;11.93;;;;;;;6.12;100.00;102565.97;5262666;28;20032;-68
2022/10/19 07:12:47;;;;;;;19.70;12.30;;;;;;;6.16;100.00;102575.59;5260635;28;20035;-68
2022/10/19 07:15:18;;;;;;;22.05;11.40;;;;;;;6.10;100.00;102581.94;5259128;28;20498;-68
2022/10/19 07:17:51;;;;;;;21.20;11.77;;;;;;;6.21;100.00;102582.50;5263562;28;20033;-69
2022/10/19 07:20:23;;;;;;;19.08;11.57;;;;;;;6.14;100.00;102580.06;5272118;28;20414;-68
2022/10/19 07:22:54;;;;;;;17.90;11.65;;;;;;;6.16;100.00;102583.53;5269365;28;20021;-68
2022/10/19 07:25:25;;;;;;;19.30;11.75;;;;;;;6.25;100.00;102581.47;5276474;28;20024;-69
2022/10/19 07:27:57;;;;;;;18.65;12.32;;;;;;;6.29;100.00;102579.59;5265025;28;20051;-68
2022/10/19 07:30:28;;;;;;;19.83;11.43;;;;;;;6.39;100.00;102582.84;5275616;28;20105;-68
2022/10/19 07:32:59;;;;;;;23.60;11.98;;;;;;;6.42;100.00;102577.44;5271151;28;20033;-69
2022/10/19 07:35:31;;;;;;;16.48;13.10;;;;;;;6.43;100.00;102579.19;5273698;28;20028;-68
2022/10/19 07:38:02;;;;;;;20.00;13.35;;;;;;;6.47;100.00;102586.97;5271803;28;20029;-68
2022/10/19 07:40:34;;;;;;;23.35;13.48;;;;;;;6.50;100.00;102579.84;5274642;28;20548;-68
2022/10/19 07:43:05;;;;;;;23.38;13.93;;;;;;;6.56;100.00;102576.97;5266779;28;20029;-68
2022/10/19 07:45:37;;;;;;;21.60;13.18;;;;;;;6.62;100.00;102571.50;5264410;28;20028;-68
2022/10/19 07:48:08;;;;;;;19.13;13.00;;;;;;;6.59;100.00;102567.16;5272021;28;20066;-68
2022/10/19 07:50:39;;;;;;;25.92;13.55;;;;;;;6.68;100.00;102569.50;5267916;28;20025;-68
2022/10/19 07:53:10;;;;;;;21.67;13.45;;;;;;;6.72;100.00;102564.13;5269988;28;20517;-68
2022/10/19 07:55:42;;;;;;;25.27;14.40;;;;;;;6.66;100.00;102562.53;5275018;28;20080;-68
2022/10/19 07:58:13;;;;;;;21.80;12.70;;;;;;;6.72;100.00;102559.66;5264234;28;20040;-68
2022/10/19 08:00:44;;;;;;;21.55;13.77;;;;;;;6.87;100.00;102560.97;5268825;28;20030;-69
2022/10/19 08:03:16;;;;;;;19.58;12.90;;;;;;;6.86;100.00;102557.44;5264892;28;20032;-68
2022/10/19 08:05:47;;;;;;;25.80;14.07;;;;;;;6.93;100.00;102559.88;5269012;28;20029;-69
2022/10/19 08:08:18;;;;;;;23.70;13.40;;;;;;;6.94;100.00;102553.66;5270820;28;20040;-69
2022/10/19 08:10:49;;;;;;;21.10;13.18;;;;;;;6.98;100.00;102550.84;5268036;28;20112;-68
2022/10/19 08:13:21;;;;;;;20.58;12.98;;;;;;;7.02;100.00;102560.44;5267307;28;20028;-68
2022/10/19 08:15:52;;;;;;;21.17;13.60;;;;;;;7.00;100.00;102561.38;5278639;28;20029;-68
2022/10/19 08:18:23;;;;;;;20.48;13.38;;;;;;;7.06;100.00;102547.94;5267607;28;20107;-68
2022/10/19 08:20:55;;;;;;;20.88;13.68;;;;;;;7.16;100.00;102551.13;5264982;28;20032;-69
2022/10/19 08:23:26;;;;;;;21.75;12.80;;;;;;;7.23;100.00;102548.22;5271307;28;20032;-69
2022/10/19 08:25:58;;;;;;;24.58;14.05;;;;;;;7.28;100.00;102540.06;5264694;28;20388;-69
2022/10/19 08:28:29;;;;;;;25.52;14.27;;;;;;;7.38;100.00;102535.31;5260442;28;20431;-68
2022/10/19 08:31:13;;;;;;;26.27;13.85;;;;;;;7.41;100.00;102524.59;5267440;28;20056;-68
2022/10/19 08:33:45;;;;;;;23.98;14.50;;;;;;;7.51;100.00;102525.97;5265941;28;20036;-68
2022/10/19 08:36:16;;;;;;;24.20;14.50;;;;;;;7.60;100.00;102527.44;5265095;28;20028;-68
2022/10/19 08:38:48;;;;;;;28.20;14.55;;;;;;;7.67;100.00;102523.63;5270612;28;20037;-68
2022/10/19 08:41:22;;;;;;;22.85;14.52;;;;;;;7.71;100.00;102516.38;5263529;28;20119;-68
2022/10/19 08:44:27;;;;;;;21.75;14.82;;;;;;;7.73;100.00;102517.19;5265709;28;20025;-68
2022/10/19 08:47:19;;;;;;;23.48;13.50;;;;;;;7.96;100.00;102516.34;5264063;28;20044;-68
2022/10/19 08:49:51;;;;;;;20.23;13.32;;;;;;;7.97;100.00;102516.28;5262575;28;20024;-69
2022/10/19 08:52:30;;;;;;;27.55;14.63;;;;;;;8.04;100.00;102511.59;5265480;28;20036;-69
2022/10/19 08:55:10;;;;;;;19.75;13.27;;;;;;;8.07;100.00;102508.78;5268930;28;20054;-69
2022/10/19 08:58:13;;;;;;;23.27;13.57;;;;;;;8.16;100.00;102518.22;5265546;28;20032;-69
2022/10/19 09:01:03;;;;;;;23.58;12.85;;;;;;;8.27;100.00;102502.72;5268346;28;20052;-69
2022/10/19 09:03:45;;;;;;;20.30;12.35;;;;;;;8.30;100.00;102507.88;5263279;28;20028;-70
2022/10/19 09:06:33;;;;;;;25.10;13.45;;;;;;;8.43;100.00;102502.97;5268937;28;20101;-70
2022/10/19 09:09:05;;;;;;;20.13;12.52;;;;;;;8.54;100.00;102498.09;5263464;28;20103;-69
2022/10/19 09:11:43;;;;;;;25.13;12.48;;;;;;;8.61;100.00;102491.59;5262292;28;20962;-70
2022/10/19 09:14:28;;;;;;;19.05;12.00;;;;;;;8.73;100.00;102489.34;5272624;28;20024;-69
2022/10/19 09:17:02;;;;;;;21.67;11.88;;;;;;;8.74;100.00;102499.03;5277306;28;20058;-69
2022/10/19 09:19:34;;;;;;;26.08;11.95;;;;;;;8.88;100.00;102499.34;5264716;28;20037;-69
2022/10/19 09:22:33;;;;;;;21.63;12.85;;;;;;;8.91;100.00;102506.31;5265817;28;20459;-69
2022/10/19 09:25:19;;;;;;;17.65;11.05;;;;;;;8.95;100.00;102515.91;5267489;28;20044;-69
2022/10/19 09:28:13;;;;;;;19.85;10.32;;;;;;;9.09;100.00;102517.97;5260943;28;20132;-69
2022/10/19 09:30:47;;;;;;;18.67;10.20;;;;;;;9.13;100.00;102509.78;5260902;28;20027;-70
2022/10/19 09:33:27;;;;;;;16.38;9.23;;;;;;;9.26;100.00;102510.09;5271268;28;20070;-69
2022/10/19 09:36:01;;;;;;;17.20;9.40;;;;;;;9.29;100.00;102509.13;5260555;28;20056;-69
2022/10/19 09:38:33;;;;;;;16.92;8.38;;;;;;;9.44;100.00;102508.44;5264091;28;20037;-69
2022/10/19 09:41:14;;;;;;;16.48;7.80;;;;;;;9.50;100.00;102505.47;5258862;28;20028;-70
2022/10/19 09:43:52;;;;;;;15.60;7.80;;;;;;;9.52;100.00;102500.09;5266610;28;20047;-70
2022/10/19 09:46:43;;;;;;;17.25;7.47;;;;;;;9.58;100.00;102499.81;5263798;28;20082;-69
2022/10/19 09:49:14;;;;;;;14.82;7.13;;;;;;;9.73;100.00;102492.91;5262117;28;20036;-69
2022/10/19 09:51:51;;;;;;;15.77;6.90;;;;;;;9.75;100.00;102491.03;5270601;28;20028;-70
2022/10/19 09:54:37;;;;;;;16.70;7.43;;;;;;;9.81;100.00;102477.41;5263671;28;20470;-70
2022/10/19 09:57:20;;;;;;;14.10;6.68;;;;;;;9.93;100.00;102482.19;5257493;28;20478;-70
2022/10/19 09:59:52;;;;;;;12.05;6.78;;;;;;;10.02;100.00;102473.72;5260570;28;20398;-69
2022/10/19 10:02:31;;;;;;;16.80;6.20;;;;;;;10.06;100.00;102470.91;5259650;28;20028;-70
2022/10/19 10:05:12;;;;;;;13.48;6.57;;;;;;;10.18;100.00;102476.53;5261579;28;20037;-70
2022/10/19 10:07:44;;;;;;;13.30;6.18;;;;;;;10.26;100.00;102459.25;5261984;28;20037;-69
2022/10/19 10:10:34;;;;;;;12.50;5.15;;;;;;;10.33;100.00;102464.25;5262815;28;20055;-69
2022/10/19 10:13:05;;;;;;;14.15;5.28;;;;;;;10.44;100.00;102473.53;5263804;28;20494;-70
2022/10/19 10:15:47;;;;;;;14.13;5.88;;;;;;;10.51;100.00;102472.31;5265058;28;20119;-70
2022/10/19 10:18:19;;;;;;;12.45;5.18;;;;;;;10.51;100.00;102470.50;5257453;28;20044;-70
2022/10/19 10:21:12;;;;;;;15.95;6.03;;;;;;;10.62;100.00;102474.41;5267719;28;20951;-70
2022/10/19 10:24:15;;;;;;;13.65;5.30;;;;;;;10.66;100.00;102470.63;5271101;28;20682;-70
2022/10/19 10:26:58;;;;;;;12.27;5.22;;;;;;;10.77;100.00;102469.16;5257749;28;20025;-70
2022/10/19 10:29:37;;;;;;;11.63;5.13;;;;;;;10.86;100.00;102467.81;5262779;28;20054;-70
2022/10/19 10:32:18;;;;;;;10.90;4.68;;;;;;;10.92;100.00;102469.31;5253493;28;20032;-71
2022/10/19 10:35:00;;;;;;;11.23;5.10;;;;;;;10.99;100.00;102468.06;5263433;28;20530;-70
2022/10/19 10:37:43;;;;;;;10.40;4.75;;;;;;;11.08;100.00;102462.22;5262155;28;20041;-71
2022/10/19 10:40:22;;;;;;;11.65;4.88;;;;;;;11.13;100.00;102457.50;5276028;28;20031;-71
2022/10/19 10:43:01;;;;;;;9.93;4.65;;;;;;;11.24;100.00;102448.03;5255005;28;20386;-71
2022/10/19 10:45:39;;;;;;;9.15;4.53;;;;;;;11.17;100.00;102453.72;5270641;28;20029;-71
2022/10/19 10:48:25;;;;;;;12.82;4.32;;;;;;;11.32;100.00;102443.16;5270290;28;20044;-70
2022/10/19 10:50:59;;;;;;;14.60;4.82;;;;;;;11.39;100.00;102452.59;5271443;28;20107;-70
2022/10/19 10:53:30;;;;;;;;;;;;;;;11.39;100.00;102455.25;5254359;28;20036;-71
2022/10/19 10:56:03;;;;;;;10.95;4.80;;;;;;;11.45;100.00;102436.22;5262027;28;19927;-71
2022/10/19 10:58:46;;;;;;;11.98;5.25;;;;;;;11.47;100.00;102442.34;5260270;28;20294;-70
2022/10/19 11:01:25;;;;;;;13.13;4.88;;;;;;;11.56;100.00;102432.94;5261931;28;20156;-70
2022/10/19 11:04:12;;;;;;;11.50;4.53;;;;;;;11.62;100.00;102437.97;5269084;28;20027;-70
2022/10/19 11:06:53;;;;;;;10.45;5.00;;;;;;;11.66;100.00;102425.25;5264341;28;20370;-71
2022/10/19 11:09:31;;;;;;;13.40;5.20;;;;;;;11.62;100.00;102421.03;5268385;28;20024;-70
2022/10/19 11:12:07;;;;;;;11.90;4.88;;;;;;;11.75;100.00;102422.06;5264292;28;20242;-70
2022/10/19 11:14:55;;;;;;;14.02;5.28;;;;;;;11.83;100.00;102410.94;5263652;28;20051;-70
2022/10/19 11:17:31;;;;;;;10.43;5.65;;;;;;;11.82;100.00;102415.44;5266629;28;20551;-70
2022/10/19 11:20:06;;;;;;;11.13;4.78;;;;;;;11.90;100.00;102402.50;5280117;28;20036;-70
2022/10/19 11:22:52;;;;;;;10.77;4.90;;;;;;;11.87;100.00;102394.66;5263122;28;20478;-70
2022/10/19 11:25:45;;;;;;;11.68;4.53;;;;;;;12.09;100.00;102394.28;5264090;28;20028;-71
2022/10/19 11:28:26;;;;;;;11.73;4.45;;;;;;;12.07;100.00;102385.50;5274813;28;20118;-71
2022/10/19 11:31:10;;;;;;;10.55;4.60;;;;;;;12.10;100.00;102377.31;5264550;28;20486;-70
2022/10/19 11:33:55;;;;;;;9.43;5.20;;;;;;;12.14;100.00;102376.16;5263034;28;20555;-70
2022/10/19 11:36:50;;;;;;;10.13;5.10;;;;;;;12.13;100.00;102369.06;5269034;28;20052;-71
2022/10/19 11:39:49;;;;;;;14.25;5.20;;;;;;;12.21;100.00;102363.28;5264006;28;20571;-70
2022/10/19 11:42:26;;;;;;;17.48;5.22;;;;;;;12.18;100.00;102351.88;5266299;28;20036;-71
2022/10/19 11:45:22;;;;;;;15.38;5.13;;;;;;;12.28;100.00;102340.56;5256097;28;20086;-71
2022/10/19 11:48:25;;;;;;;12.38;5.15;;;;;;;12.27;100.00;102336.19;5272799;28;20036;-71
2022/10/19 11:51:02;;;;;;;14.00;5.85;;;;;;;12.38;100.00;102323.94;5266747;28;20060;-71
2022/10/19 11:53:45;;;;;;;12.57;5.88;;;;;;;12.28;100.00;102308.44;5264799;28;20040;-71